createdAt,value
2019-01-21T00:01:47.874Z,29.30
2019-01-21T00:04:19.311Z,29.37
2019-01-21T00:06:50.440Z,30.40
2019-01-21T00:09:21.801Z,30.43
2019-01-21T00:11:52.897Z,28.87
2019-01-21T00:14:24.293Z,30.50
2019-01-21T00:16:55.377Z,29.23
2019-01-21T00:19:26.890Z,29.40
2019-01-21T00:21:57.971Z,30.17
2019-01-21T00:24:29.375Z,28.30
2019-01-21T00:27:12.118Z,30.67
2019-01-21T00:29:43.335Z,28.65
2019-01-21T00:32:14.399Z,28.70
2019-01-21T00:34:45.741Z,30.00
2019-01-21T00:37:16.925Z,27.10
2019-01-21T00:39:48.340Z,29.07
2019-01-21T00:42:19.434Z,31.10
2019-01-21T00:44:58.719Z,29.87
2019-01-21T00:47:30.320Z,30.73
2019-01-21T00:50:02.056Z,28.83
2019-01-21T00:52:33.177Z,28.43
2019-01-21T00:55:04.725Z,29.40
2019-01-21T00:57:35.863Z,30.67
2019-01-21T01:00:11.229Z,30.23
2019-01-21T01:02:42.468Z,30.53
2019-01-21T01:05:24.275Z,29.10
2019-01-21T01:07:55.417Z,28.57
2019-01-21T01:10:31.591Z,27.70
2019-01-21T01:13:02.646Z,29.10
2019-01-21T01:15:34.467Z,31.63
2019-01-21T01:18:06.683Z,29.40
2019-01-21T01:20:38.079Z,29.50
2019-01-21T01:23:09.293Z,29.80
2019-01-21T01:25:40.685Z,28.53
2019-01-21T01:28:11.777Z,28.63
2019-01-21T01:30:55.814Z,29.30
2019-01-21T01:33:26.928Z,29.00
2019-01-21T01:35:58.476Z,31.40
2019-01-21T01:38:30.141Z,29.23
2019-01-21T01:41:03.227Z,29.97
2019-01-21T01:43:34.359Z,29.87
2019-01-21T01:46:05.964Z,29.40
2019-01-21T01:48:37.011Z,28.73
2019-01-21T01:51:08.520Z,31.43
2019-01-21T01:53:39.727Z,30.27
2019-01-21T01:56:11.233Z,30.75
2019-01-21T01:58:42.375Z,31.00
2019-01-21T02:01:25.350Z,30.10
2019-01-21T02:03:56.426Z,30.48
2019-01-21T02:06:27.712Z,30.70
2019-01-21T02:08:58.856Z,29.90
2019-01-21T02:11:30.266Z,29.97
2019-01-21T02:14:01.325Z,31.13
2019-01-21T02:16:32.637Z,30.10
2019-01-21T02:19:03.717Z,29.90
2019-01-21T02:21:39.004Z,31.00
2019-01-21T02:24:11.939Z,29.87
2019-01-21T02:27:05.791Z,32.07
2019-01-21T02:29:56.289Z,31.43
2019-01-21T02:32:51.439Z,31.20
2019-01-21T02:35:36.596Z,31.70
2019-01-21T02:38:29.249Z,31.10
2019-01-21T02:41:11.639Z,30.27
2019-01-21T02:44:32.861Z,30.35
2019-01-21T02:47:44.441Z,30.72
2019-01-21T02:50:50.104Z,29.77
2019-01-21T02:53:40.866Z,31.77
2019-01-21T02:57:03.982Z,32.13
2019-01-21T02:59:56.694Z,30.92
2019-01-21T03:03:08.938Z,32.35
2019-01-21T03:06:02.041Z,30.92
2019-01-21T03:09:08.232Z,30.60
2019-01-21T03:12:20.627Z,30.32
2019-01-21T03:15:31.080Z,31.00
2019-01-21T03:18:39.351Z,31.50
2019-01-21T03:21:47.576Z,32.60
2019-01-21T03:24:42.707Z,31.17
2019-01-21T03:27:25.810Z,31.60
2019-01-21T03:30:32.569Z,32.70
2019-01-21T03:33:27.691Z,33.10
2019-01-21T03:36:37.209Z,32.35
2019-01-21T03:39:37.492Z,33.05
2019-01-21T03:42:20.091Z,32.55
2019-01-21T03:45:44.673Z,33.42
2019-01-21T03:48:24.415Z,32.67
2019-01-21T03:51:31.367Z,32.67
2019-01-21T03:54:19.560Z,32.10
2019-01-21T03:57:22.759Z,31.73
2019-01-21T04:00:12.906Z,31.93
2019-01-21T04:03:21.864Z,30.97
2019-01-21T04:06:27.777Z,33.50
2019-01-21T04:09:47.625Z,32.30
2019-01-21T04:12:57.962Z,32.33
2019-01-21T04:16:10.294Z,33.83
2019-01-21T04:18:58.576Z,34.18
2019-01-21T04:22:08.296Z,34.30
2019-01-21T04:25:13.556Z,32.43
2019-01-21T04:28:12.936Z,34.17
2019-01-21T04:31:19.569Z,32.33
2019-01-21T04:34:22.836Z,33.43
2019-01-21T04:37:47.155Z,33.00
2019-01-21T04:40:54.541Z,32.43
2019-01-21T04:44:12.231Z,32.17
2019-01-21T04:47:26.193Z,34.60
2019-01-21T04:50:18.985Z,31.30
2019-01-21T04:53:23.648Z,33.83
2019-01-21T04:56:31.634Z,32.00
2019-01-21T04:59:55.755Z,34.70
2019-01-21T05:03:03.783Z,33.50
2019-01-21T05:06:27.447Z,34.30
2019-01-21T05:09:11.895Z,33.38
2019-01-21T05:12:13.058Z,34.63
2019-01-21T05:15:16.458Z,35.20
2019-01-21T05:18:29.960Z,34.27
2019-01-21T05:21:32.919Z,33.83
2019-01-21T05:24:46.711Z,33.60
2019-01-21T05:27:48.101Z,33.02
2019-01-21T05:30:55.690Z,33.67
2019-01-21T05:33:50.728Z,34.45
2019-01-21T05:37:05.788Z,34.33
2019-01-21T05:40:05.317Z,34.58
2019-01-21T05:43:03.549Z,35.73
2019-01-21T05:46:22.003Z,33.75
2019-01-21T05:49:30.014Z,34.98
2019-01-21T05:52:21.712Z,34.30
2019-01-21T05:55:49.312Z,34.55
2019-01-21T05:58:50.613Z,34.35
2019-01-21T06:02:06.366Z,37.78
2019-01-21T06:05:18.441Z,33.28
2019-01-21T06:08:16.015Z,32.25
2019-01-21T06:10:57.581Z,34.40
2019-01-21T06:14:12.595Z,34.60
2019-01-21T06:17:04.307Z,33.23
2019-01-21T06:20:15.580Z,32.35
2019-01-21T06:23:18.375Z,34.80
2019-01-21T06:26:27.111Z,34.10
2019-01-21T06:29:41.703Z,31.65
2019-01-21T06:33:02.571Z,33.83
2019-01-21T06:36:22.869Z,33.85
2019-01-21T06:39:59.359Z,35.00
2019-01-21T06:43:08.455Z,34.65
2019-01-21T06:46:34.892Z,34.50
2019-01-21T06:49:35.234Z,33.55
2019-01-21T06:52:56.687Z,34.27
2019-01-21T06:56:15.083Z,34.65
2019-01-21T06:59:18.241Z,35.55
2019-01-21T07:05:40.903Z,36.38
2019-01-21T07:08:32.262Z,35.73
2019-01-21T07:11:31.981Z,37.00
2019-01-21T07:14:24.071Z,34.00
2019-01-21T07:17:32.609Z,33.63
2019-01-21T07:20:34.975Z,33.18
2019-01-21T07:23:53.433Z,36.45
2019-01-21T07:26:52.602Z,35.08
2019-01-21T07:30:06.485Z,33.92
2019-01-21T07:33:19.039Z,36.20
2019-01-21T07:36:55.929Z,36.03
2019-01-21T07:40:04.991Z,34.38
2019-01-21T07:43:35.657Z,34.10
2019-01-21T07:46:41.297Z,33.25
2019-01-21T07:50:04.237Z,35.08
2019-01-21T07:53:37.190Z,36.17
2019-01-21T07:56:40.161Z,35.15
2019-01-21T07:59:47.741Z,34.23
2019-01-21T08:03:24.436Z,34.03
2019-01-21T08:06:26.553Z,38.00
2019-01-21T08:09:36.055Z,36.63
2019-01-21T08:12:37.163Z,34.65
2019-01-21T08:15:18.992Z,36.23
2019-01-21T08:18:17.884Z,33.07
2019-01-21T08:21:22.417Z,36.50
2019-01-21T08:24:06.955Z,35.10
2019-01-21T08:27:34.743Z,33.10
2019-01-21T08:30:24.433Z,34.10
2019-01-21T08:33:32.651Z,34.50
2019-01-21T08:36:26.443Z,33.90
2019-01-21T08:39:33.572Z,36.20
2019-01-21T08:42:57.862Z,35.40
2019-01-21T08:46:23.941Z,36.57
2019-01-21T08:49:41.391Z,35.00
2019-01-21T08:52:26.127Z,36.07
2019-01-21T08:55:37.747Z,35.13
2019-01-21T08:58:41.219Z,34.90
2019-01-21T09:01:44.351Z,35.30
2019-01-21T09:04:48.036Z,34.40
2019-01-21T09:07:47.795Z,35.60
2019-01-21T09:10:42.059Z,37.70
2019-01-21T09:13:40.736Z,34.30
2019-01-21T09:16:38.983Z,35.47
2019-01-21T09:19:23.879Z,36.23
2019-01-21T09:22:26.559Z,36.53
2019-01-21T09:25:21.911Z,34.73
2019-01-21T09:28:25.878Z,34.73
2019-01-21T09:31:54.195Z,33.93
2019-01-21T09:35:14.863Z,36.47
2019-01-21T09:38:23.798Z,35.70
2019-01-21T09:41:34.469Z,35.07
2019-01-21T09:44:30.179Z,36.93
2019-01-21T09:47:00.111Z,36.10
2019-01-21T09:49:29.529Z,34.87
2019-01-21T09:52:10.725Z,36.47
2019-01-21T09:54:42.162Z,34.57
2019-01-21T09:57:23.319Z,35.47
2019-01-21T10:00:06.453Z,35.97
2019-01-21T10:02:59.081Z,33.80
2019-01-21T10:05:32.455Z,37.23
2019-01-21T10:08:18.489Z,35.50
2019-01-21T10:11:19.023Z,35.60
2019-01-21T10:14:37.185Z,34.40
2019-01-21T10:18:04.162Z,34.47
2019-01-21T10:21:02.588Z,34.90
2019-01-21T10:24:16.794Z,36.67
2019-01-21T10:27:24.158Z,33.47
2019-01-21T10:30:47.357Z,36.73
2019-01-21T10:33:42.434Z,35.37
2019-01-21T10:36:52.532Z,34.93
2019-01-21T10:40:07.962Z,34.60
2019-01-21T10:43:06.851Z,35.00
2019-01-21T10:46:01.153Z,34.27
2019-01-21T10:48:58.349Z,35.30
2019-01-21T10:52:13.834Z,34.83
2019-01-21T10:55:25.159Z,35.27
2019-01-21T10:58:12.647Z,35.43
2019-01-21T11:01:40.177Z,35.73
2019-01-21T11:05:07.815Z,34.70
2019-01-21T11:08:15.559Z,36.13
2019-01-21T11:11:11.778Z,35.40
2019-01-21T11:14:27.221Z,34.57
2019-01-21T11:17:22.580Z,36.17
2019-01-21T11:20:25.830Z,34.77
2019-01-21T11:23:12.078Z,36.57
2019-01-21T11:26:21.319Z,34.17
2019-01-21T11:29:22.515Z,35.93
2019-01-21T11:32:26.368Z,36.53
2019-01-21T11:35:35.403Z,33.60
2019-01-21T11:38:52.755Z,36.03
2019-01-21T11:41:51.431Z,35.30
2019-01-21T11:45:19.007Z,35.50
2019-01-21T11:48:05.007Z,36.07
2019-01-21T11:51:04.956Z,34.83
2019-01-21T11:54:01.553Z,36.20
2019-01-21T11:56:52.167Z,35.53
2019-01-21T11:59:43.670Z,34.40
2019-01-21T12:02:55.569Z,35.53
2019-01-21T12:05:49.656Z,37.20
2019-01-21T12:09:16.928Z,34.77
2019-01-21T12:11:59.132Z,35.20
2019-01-21T12:15:13.080Z,35.70
2019-01-21T12:18:22.507Z,34.00
2019-01-21T12:21:18.301Z,35.13
2019-01-21T12:24:26.619Z,36.10
2019-01-21T12:27:43.832Z,35.37
2019-01-21T12:30:46.364Z,37.20
2019-01-21T12:33:51.063Z,35.83
2019-01-21T12:36:37.693Z,35.53
2019-01-21T12:39:40.828Z,37.57
2019-01-21T12:42:56.424Z,37.97
2019-01-21T12:46:10.472Z,37.30
2019-01-21T12:49:31.346Z,37.60
2019-01-21T12:52:32.729Z,40.17
2019-01-21T12:55:39.411Z,37.00
2019-01-21T12:58:23.465Z,37.43
2019-01-21T13:01:19.563Z,36.80
2019-01-21T13:04:34.007Z,36.63
2019-01-21T13:07:29.729Z,35.70
2019-01-21T13:10:24.394Z,39.13
2019-01-21T13:13:30.595Z,37.13
2019-01-21T13:16:28.119Z,36.77
2019-01-21T13:19:49.275Z,37.93
2019-01-21T13:22:51.318Z,35.43
2019-01-21T13:26:02.922Z,37.30
2019-01-21T13:29:06.440Z,38.20
2019-01-21T13:32:13.320Z,37.10
2019-01-21T13:35:16.593Z,36.77
2019-01-21T13:38:25.752Z,35.07
2019-01-21T13:41:24.905Z,37.90
2019-01-21T13:44:41.261Z,35.30
2019-01-21T13:47:50.741Z,36.60
2019-01-21T13:51:05.165Z,37.23
2019-01-21T13:54:24.657Z,38.67
2019-01-21T13:57:24.738Z,37.20
2019-01-21T14:00:46.075Z,36.73
2019-01-21T14:03:35.672Z,37.63
2019-01-21T14:06:46.207Z,37.63
2019-01-21T14:09:59.881Z,35.03
2019-01-21T14:13:03.171Z,36.70
2019-01-21T14:16:25.625Z,37.20
2019-01-21T14:19:24.666Z,36.67
2019-01-21T14:22:44.737Z,37.37
2019-01-21T14:25:51.555Z,36.97
2019-01-21T14:28:39.671Z,36.67
2019-01-21T14:31:41.286Z,38.00
2019-01-21T14:34:44.911Z,38.30
2019-01-21T14:37:47.348Z,37.50
2019-01-21T14:40:48.523Z,39.13
2019-01-21T14:43:48.793Z,39.87
2019-01-21T14:46:54.518Z,39.13
2019-01-21T14:50:19.549Z,37.50
2019-01-21T14:53:49.488Z,38.47
2019-01-21T14:56:31.603Z,41.53
2019-01-21T14:59:14.753Z,40.90
2019-01-21T15:01:58.712Z,38.30
2019-01-21T15:04:53.658Z,39.97
2019-01-21T15:07:53.616Z,38.33
2019-01-21T15:11:12.691Z,38.77
2019-01-21T15:14:09.882Z,37.03
2019-01-21T15:17:21.600Z,36.53
2019-01-21T15:20:06.495Z,36.60
2019-01-21T15:23:19.775Z,38.97
2019-01-21T15:26:18.075Z,36.50
2019-01-21T15:29:38.620Z,38.17
2019-01-21T15:32:39.773Z,35.63
2019-01-21T15:35:49.722Z,37.00
2019-01-21T15:38:59.177Z,37.07
2019-01-21T15:42:01.788Z,35.10
2019-01-21T15:45:01.424Z,36.37
2019-01-21T15:47:56.980Z,36.03
2019-01-21T15:50:39.304Z,35.77
2019-01-21T15:53:40.775Z,36.67
2019-01-21T15:56:20.535Z,36.87
2019-01-21T15:59:44.097Z,35.53
2019-01-21T16:02:48.001Z,35.60
2019-01-21T16:05:57.273Z,36.60
2019-01-21T16:08:37.927Z,38.27
2019-01-21T16:11:58.096Z,35.03
2019-01-21T16:15:16.352Z,36.17
2019-01-21T16:18:15.356Z,36.07
2019-01-21T16:21:19.705Z,35.87
2019-01-21T16:24:28.154Z,37.90
2019-01-21T16:27:08.021Z,36.00
2019-01-21T16:29:50.730Z,34.67
2019-01-21T16:32:45.569Z,36.17
2019-01-21T16:35:34.017Z,36.87
2019-01-21T16:38:39.725Z,36.10
2019-01-21T16:42:02.563Z,36.33
2019-01-21T16:44:33.648Z,46.60
2019-01-21T16:47:05.120Z,41.37
2019-01-21T16:49:36.191Z,40.00
2019-01-21T16:52:07.516Z,38.43
2019-01-21T16:54:38.565Z,38.20
2019-01-21T16:57:09.903Z,36.30
2019-01-21T16:59:41.000Z,42.50
2019-01-21T17:02:12.401Z,37.00
2019-01-21T17:04:43.493Z,38.33
2019-01-21T17:07:14.862Z,37.33
2019-01-21T17:09:45.988Z,35.43
2019-01-21T17:12:17.222Z,35.53
2019-01-21T17:14:48.330Z,37.63
2019-01-21T17:17:19.678Z,37.17
2019-01-21T17:19:50.776Z,36.80
2019-01-21T17:22:22.064Z,36.27
2019-01-21T17:24:53.234Z,34.13
2019-01-21T17:27:26.098Z,36.53
2019-01-21T17:30:36.305Z,35.77
2019-01-21T17:33:07.608Z,37.60
2019-01-21T17:35:39.193Z,37.80
2019-01-21T17:38:10.799Z,36.37
2019-01-21T17:40:42.016Z,34.97
2019-01-21T17:43:13.818Z,36.40
2019-01-21T17:45:45.273Z,35.90
2019-01-21T17:48:29.328Z,36.63
2019-01-21T17:51:00.505Z,34.10
2019-01-21T17:53:32.444Z,33.67
2019-01-21T17:56:15.558Z,36.50
2019-01-21T17:58:46.961Z,33.53
2019-01-21T18:01:18.135Z,33.00
2019-01-21T18:03:49.724Z,33.40
2019-01-21T18:06:37.244Z,35.70
2019-01-21T18:09:10.450Z,34.73
2019-01-21T18:11:41.661Z,34.60
2019-01-21T18:14:13.403Z,36.27
2019-01-21T18:16:44.591Z,35.30
2019-01-21T18:19:16.042Z,32.80
2019-01-21T18:25:42.536Z,34.30
2019-01-21T18:28:13.780Z,35.50
2019-01-21T18:30:45.302Z,34.50
2019-01-21T18:33:28.540Z,34.60
2019-01-21T18:36:11.706Z,34.80
2019-01-21T18:38:42.854Z,35.70
2019-01-21T18:41:15.508Z,32.27
2019-01-21T18:43:48.900Z,33.92
2019-01-21T18:46:20.192Z,34.47
2019-01-21T18:48:51.304Z,32.67
2019-01-21T18:51:26.456Z,34.17
2019-01-21T18:53:57.640Z,35.73
2019-01-21T18:56:29.031Z,35.50
2019-01-21T18:59:00.135Z,35.90
2019-01-21T19:01:31.511Z,35.60
2019-01-21T19:04:02.640Z,34.13
2019-01-21T19:13:26.619Z,33.20
2019-01-21T19:16:31.179Z,36.30
2019-01-21T19:19:03.611Z,34.97
2019-01-21T19:21:34.982Z,34.30
2019-01-21T19:24:06.987Z,34.83
2019-01-21T19:26:38.231Z,34.90
2019-01-21T19:29:09.592Z,34.80
2019-01-21T19:34:53.982Z,39.30
2019-01-21T19:37:25.243Z,37.93
2019-01-21T19:39:56.574Z,39.87
2019-01-21T19:49:17.914Z,37.48
2019-01-21T19:51:49.103Z,39.03
2019-01-21T19:54:41.564Z,37.23
2019-01-21T20:00:20.646Z,34.73
2019-01-21T20:02:52.789Z,37.10
2019-01-21T20:05:34.430Z,34.67
2019-01-21T20:08:05.931Z,34.50
2019-01-21T20:10:38.454Z,35.40
2019-01-21T20:13:10.098Z,34.43
2019-01-21T20:15:55.624Z,35.30
2019-01-21T20:18:28.708Z,36.40
2019-01-21T20:21:00.078Z,36.77
2019-01-21T20:23:35.136Z,33.50
2019-01-21T20:26:06.676Z,34.50
2019-01-21T20:28:38.050Z,35.27
2019-01-21T20:31:09.599Z,35.20
2019-01-21T20:33:41.115Z,34.20
2019-01-21T20:36:12.806Z,34.77
2019-01-21T20:38:44.048Z,34.53
2019-01-21T20:41:15.695Z,36.30
2019-01-21T20:43:46.948Z,33.40
2019-01-21T20:46:18.358Z,33.60
2019-01-21T20:48:49.628Z,35.17
2019-01-21T20:51:21.212Z,35.40
2019-01-21T20:53:52.476Z,35.23
2019-01-21T20:56:23.880Z,35.10
2019-01-21T20:58:55.195Z,35.00
2019-01-21T21:01:26.696Z,37.30
2019-01-21T21:03:57.918Z,34.50
2019-01-21T21:06:29.289Z,33.23
2019-01-21T21:09:00.664Z,35.60
2019-01-21T21:11:33.548Z,34.80
2019-01-21T21:14:04.636Z,34.07
2019-01-21T21:16:36.012Z,34.37
2019-01-21T21:19:07.055Z,33.33
2019-01-21T21:21:38.152Z,37.13
2019-01-21T21:24:09.432Z,37.73
2019-01-21T21:26:40.806Z,36.03
2019-01-21T21:29:11.816Z,36.47
2019-01-21T21:31:43.186Z,36.60
2019-01-21T21:34:14.512Z,36.07
2019-01-21T21:36:45.785Z,36.43
2019-01-21T21:39:17.412Z,38.20
2019-01-21T21:41:48.744Z,36.47
2019-01-21T21:44:21.258Z,36.90
2019-01-21T21:46:52.658Z,37.50
2019-01-21T21:49:24.715Z,37.60
2019-01-21T21:51:56.030Z,39.13
2019-01-21T21:54:27.071Z,37.38
2019-01-21T21:56:58.637Z,37.90
2019-01-21T21:59:29.701Z,39.45
2019-01-21T22:02:01.047Z,38.23
2019-01-21T22:04:32.166Z,38.13
2019-01-21T22:07:03.519Z,37.00
2019-01-21T22:09:34.931Z,39.43
2019-01-21T22:12:06.325Z,36.87
2019-01-21T22:14:37.342Z,36.53
2019-01-21T22:17:13.666Z,36.70
2019-01-21T22:19:44.812Z,36.53
2019-01-21T22:22:16.120Z,37.20
2019-01-21T22:24:48.359Z,36.80
2019-01-21T22:27:19.858Z,36.60
2019-01-21T22:29:51.457Z,36.80
2019-01-21T22:32:22.841Z,36.53
2019-01-21T22:34:54.060Z,36.33
2019-01-21T22:37:26.476Z,36.35
2019-01-21T22:39:57.885Z,36.87
2019-01-21T22:42:29.366Z,36.77
2019-01-21T22:45:00.549Z,39.70
2019-01-21T22:47:32.168Z,37.63
2019-01-21T22:50:03.390Z,36.80
2019-01-21T22:52:41.666Z,36.55
2019-01-21T22:55:08.962Z,37.77
2019-01-21T22:57:40.344Z,38.35
2019-01-21T23:00:29.974Z,38.10
2019-01-21T23:03:02.895Z,35.40
2019-01-21T23:05:34.198Z,39.33
2019-01-21T23:08:05.805Z,34.98
2019-01-21T23:10:38.777Z,37.00
2019-01-21T23:13:11.366Z,38.73
2019-01-21T23:15:42.646Z,36.97
2019-01-21T23:18:13.989Z,36.43
2019-01-21T23:20:45.191Z,36.10
2019-01-21T23:23:16.558Z,36.60
2019-01-21T23:25:47.840Z,36.17
2019-01-21T23:28:19.358Z,36.57
2019-01-21T23:30:50.578Z,36.20
2019-01-21T23:33:22.160Z,35.80
2019-01-21T23:35:53.354Z,37.07
2019-01-21T23:38:24.767Z,35.97
2019-01-21T23:40:56.219Z,37.87
2019-01-21T23:43:27.667Z,38.80
2019-01-21T23:45:58.876Z,36.90
2019-01-21T23:48:30.225Z,35.30
2019-01-21T23:51:01.422Z,36.80
2019-01-21T23:53:32.694Z,36.00
2019-01-21T23:56:04.203Z,35.17
2019-01-21T23:58:35.658Z,32.80
